RYR88XG LEZL-EIDW
Flight info
| Callsign | RYR88XG |
|---|---|
| Flight time | N/A |
| Altitude | 38000 |
| Route | HIJ DCT PARKA DCT MELON DCT ZMR DCT NUBLO DCT RONSI DCT DELOG DCT NOZHU/N0446F390 DCT SHIRI/N0445F380 DCT UNFIT DCT PENWU DCT NICXI DCT PEMOB DCT LEMGU M17 VATRY VATRY4L |
| Aircraft | B38M/M-SDE1FGHILORVWXY/HB1 |
Departure
| Time | 2026-03-27 12:11 |
|---|---|
| Airport | Seville Airport (LEZL) |
Arrival
| Time | N/A |
|---|---|
| Airport | Dublin Airport (EIDW) |
| Time | Latitude | Longitude | Altitude | Speed | Heading |
|---|---|---|---|---|---|
| 2026-03-27 11:40 | 37.42215 | -5.89380 | 100 ft | 0 kts | 349° |
| 2026-03-27 12:05 | 37.42217 | -5.89382 | 100 ft | 0 kts | 321° |
| 2026-03-27 12:05 | 37.42218 | -5.89386 | 100 ft | 0 kts | 289° |
| 2026-03-27 12:05 | 37.42212 | -5.89399 | 102 ft | 3 kts | 233° |
| 2026-03-27 12:05 | 37.42189 | -5.89416 | 101 ft | 5 kts | 202° |
| 2026-03-27 12:06 | 37.42147 | -5.89451 | 100 ft | 10 kts | 224° |
| 2026-03-27 12:06 | 37.42075 | -5.89540 | 102 ft | 19 kts | 224° |
| 2026-03-27 12:06 | 37.41988 | -5.89680 | 100 ft | 21 kts | 250° |
| 2026-03-27 12:06 | 37.41981 | -5.89878 | 98 ft | 24 kts | 270° |
| 2026-03-27 12:07 | 37.41980 | -5.90095 | 98 ft | 26 kts | 269° |
| 2026-03-27 12:07 | 37.41979 | -5.90330 | 97 ft | 28 kts | 270° |
| 2026-03-27 12:07 | 37.41979 | -5.90584 | 95 ft | 28 kts | 269° |
| 2026-03-27 12:07 | 37.41979 | -5.90811 | 94 ft | 27 kts | 269° |
| 2026-03-27 12:08 | 37.41945 | -5.90996 | 92 ft | 19 kts | 239° |
| 2026-03-27 12:08 | 37.41897 | -5.91101 | 94 ft | 5 kts | 239° |
| 2026-03-27 12:08 | 37.41892 | -5.91110 | 93 ft | 0 kts | 239° |
| 2026-03-27 12:09 | 37.41887 | -5.91122 | 94 ft | 4 kts | 239° |
| 2026-03-27 12:09 | 37.41861 | -5.91171 | 95 ft | 11 kts | 228° |
| 2026-03-27 12:09 | 37.41785 | -5.91149 | 94 ft | 12 kts | 103° |
| 2026-03-27 12:10 | 37.41785 | -5.91119 | 94 ft | 3 kts | 89° |
| 2026-03-27 12:10 | 37.41790 | -5.90733 | 96 ft | 83 kts | 89° |
| 2026-03-27 12:10 | 37.41794 | -5.89714 | 101 ft | 147 kts | 89° |
| 2026-03-27 12:10 | 37.41803 | -5.88262 | 365 ft | 181 kts | 86° |
| 2026-03-27 12:11 | 37.41813 | -5.86625 | 1165 ft | 187 kts | 87° |
| 2026-03-27 12:11 | 37.41912 | -5.84971 | 2079 ft | 193 kts | 82° |
| 2026-03-27 12:11 | 37.41904 | -5.83178 | 2672 ft | 220 kts | 94° |
| 2026-03-27 12:11 | 37.41846 | -5.81190 | 3480 ft | 234 kts | 87° |
| 2026-03-27 12:12 | 37.42143 | -5.79106 | 4143 ft | 251 kts | 76° |
| 2026-03-27 12:12 | 37.42816 | -5.77038 | 4935 ft | 258 kts | 53° |
| 2026-03-27 12:12 | 37.44140 | -5.75565 | 5959 ft | 258 kts | 31° |
| 2026-03-27 12:12 | 37.45723 | -5.74535 | 6804 ft | 260 kts | 28° |
| 2026-03-27 12:13 | 37.47343 | -5.73515 | 7666 ft | 262 kts | 27° |
| 2026-03-27 12:13 | 37.48989 | -5.72494 | 8523 ft | 265 kts | 27° |
| 2026-03-27 12:13 | 37.50654 | -5.71471 | 9441 ft | 267 kts | 26° |
| 2026-03-27 12:13 | 37.52341 | -5.70443 | 10298 ft | 272 kts | 26° |
| 2026-03-27 12:14 | 37.54098 | -5.69375 | 10788 ft | 290 kts | 26° |
| 2026-03-27 12:14 | 37.55962 | -5.68245 | 11325 ft | 303 kts | 26° |
| 2026-03-27 12:14 | 37.57895 | -5.67074 | 12048 ft | 310 kts | 26° |
| 2026-03-27 12:14 | 37.59848 | -5.65889 | 12890 ft | 314 kts | 26° |
| 2026-03-27 12:15 | 37.61831 | -5.64687 | 13677 ft | 318 kts | 26° |
| 2026-03-27 12:15 | 37.63835 | -5.63470 | 14389 ft | 322 kts | 26° |
| 2026-03-27 12:15 | 37.65868 | -5.62236 | 15049 ft | 326 kts | 26° |
| 2026-03-27 12:15 | 37.67927 | -5.60985 | 15705 ft | 330 kts | 26° |
| 2026-03-27 12:16 | 37.70007 | -5.59720 | 16327 ft | 335 kts | 26° |
| 2026-03-27 12:16 | 37.72120 | -5.58435 | 16932 ft | 339 kts | 26° |
| 2026-03-27 12:16 | 37.74251 | -5.57138 | 17529 ft | 342 kts | 26° |
| 2026-03-27 12:16 | 37.76411 | -5.55822 | 18102 ft | 346 kts | 26° |
| 2026-03-27 12:17 | 37.78588 | -5.54495 | 18594 ft | 349 kts | 26° |
| 2026-03-27 12:17 | 37.80784 | -5.53156 | 19080 ft | 351 kts | 26° |
| 2026-03-27 12:17 | 37.82990 | -5.51809 | 19543 ft | 354 kts | 26° |
| 2026-03-27 12:17 | 37.85213 | -5.50452 | 19988 ft | 356 kts | 26° |
| 2026-03-27 12:18 | 37.87448 | -5.49086 | 20438 ft | 358 kts | 26° |
| 2026-03-27 12:18 | 37.89696 | -5.47712 | 20872 ft | 360 kts | 26° |
| 2026-03-27 12:18 | 37.91956 | -5.46328 | 21294 ft | 362 kts | 26° |
| 2026-03-27 12:18 | 37.94232 | -5.44935 | 21709 ft | 364 kts | 26° |
| 2026-03-27 12:19 | 37.96517 | -5.43534 | 22100 ft | 366 kts | 26° |
| 2026-03-27 12:19 | 37.98816 | -5.42124 | 22485 ft | 368 kts | 26° |
| 2026-03-27 12:19 | 38.01127 | -5.40706 | 22853 ft | 370 kts | 26° |
| 2026-03-27 12:19 | 38.03451 | -5.39279 | 23227 ft | 372 kts | 26° |
| 2026-03-27 12:20 | 38.05755 | -5.37863 | 23559 ft | 374 kts | 26° |
| 2026-03-27 12:20 | 38.08102 | -5.36420 | 23852 ft | 376 kts | 26° |
| 2026-03-27 12:20 | 38.10462 | -5.34967 | 24140 ft | 377 kts | 26° |
| 2026-03-27 12:20 | 38.12825 | -5.33512 | 24418 ft | 378 kts | 26° |
| 2026-03-27 12:21 | 38.15199 | -5.32049 | 24715 ft | 380 kts | 26° |
| 2026-03-27 12:21 | 38.17579 | -5.30581 | 24976 ft | 381 kts | 26° |
| 2026-03-27 12:21 | 38.19971 | -5.29104 | 25230 ft | 382 kts | 26° |
| 2026-03-27 12:21 | 38.22365 | -5.27625 | 25484 ft | 384 kts | 26° |
| 2026-03-27 12:22 | 38.24770 | -5.26139 | 25740 ft | 385 kts | 26° |
| 2026-03-27 12:22 | 38.27182 | -5.24647 | 25987 ft | 386 kts | 26° |
| 2026-03-27 12:22 | 38.29605 | -5.23147 | 26265 ft | 387 kts | 26° |
| 2026-03-27 12:22 | 38.32031 | -5.21644 | 26517 ft | 389 kts | 26° |
| 2026-03-27 12:23 | 38.34467 | -5.20134 | 26770 ft | 390 kts | 26° |
| 2026-03-27 12:23 | 38.36916 | -5.18614 | 27000 ft | 392 kts | 26° |
| 2026-03-27 12:23 | 38.39370 | -5.17091 | 27239 ft | 393 kts | 26° |
| 2026-03-27 12:23 | 38.41832 | -5.15561 | 27460 ft | 394 kts | 26° |
| 2026-03-27 12:24 | 38.44301 | -5.14026 | 27675 ft | 395 kts | 26° |
| 2026-03-27 12:24 | 38.46779 | -5.12485 | 27889 ft | 397 kts | 26° |
| 2026-03-27 12:24 | 38.49283 | -5.11000 | 28064 ft | 398 kts | 19° |
| 2026-03-27 12:24 | 38.51997 | -5.10337 | 28269 ft | 399 kts | 2° |
| 2026-03-27 12:25 | 38.54781 | -5.10496 | 28435 ft | 402 kts | 358° |
| 2026-03-27 12:25 | 38.57577 | -5.10717 | 28581 ft | 404 kts | 358° |
| 2026-03-27 12:25 | 38.60379 | -5.10966 | 28764 ft | 404 kts | 357° |
| 2026-03-27 12:25 | 38.63189 | -5.11235 | 28958 ft | 405 kts | 357° |
| 2026-03-27 12:26 | 38.66004 | -5.11515 | 29105 ft | 406 kts | 357° |
| 2026-03-27 12:26 | 38.68820 | -5.11800 | 29270 ft | 407 kts | 357° |
| 2026-03-27 12:26 | 38.70690 | -5.11990 | 29374 ft | 407 kts | 357° |
| 2026-03-27 12:26 | 38.73521 | -5.12278 | 29523 ft | 408 kts | 357° |
| 2026-03-27 12:27 | 38.76356 | -5.12567 | 29668 ft | 409 kts | 357° |
| 2026-03-27 12:27 | 38.79193 | -5.12857 | 29822 ft | 410 kts | 357° |
| 2026-03-27 12:27 | 38.82037 | -5.13147 | 29941 ft | 410 kts | 357° |
| 2026-03-27 12:27 | 38.84888 | -5.13439 | 30057 ft | 411 kts | 357° |
| 2026-03-27 12:28 | 38.87743 | -5.13732 | 30170 ft | 412 kts | 357° |
| 2026-03-27 12:28 | 38.90601 | -5.14024 | 30271 ft | 413 kts | 356° |
| 2026-03-27 12:28 | 38.93469 | -5.14318 | 30358 ft | 414 kts | 357° |
| 2026-03-27 12:29 | 38.99212 | -5.14912 | 30545 ft | 415 kts | 355° |
| 2026-03-27 12:29 | 39.02069 | -5.15514 | 30647 ft | 417 kts | 351° |
| 2026-03-27 12:29 | 39.04925 | -5.16178 | 30735 ft | 417 kts | 352° |
| 2026-03-27 12:30 | 39.10663 | -5.17448 | 30936 ft | 419 kts | 352° |
| 2026-03-27 12:30 | 39.13542 | -5.18073 | 31038 ft | 420 kts | 352° |
| 2026-03-27 12:30 | 39.16424 | -5.18697 | 31141 ft | 421 kts | 352° |
| 2026-03-27 12:30 | 39.19317 | -5.19325 | 31253 ft | 422 kts | 352° |
| 2026-03-27 12:31 | 39.22213 | -5.19952 | 31358 ft | 422 kts | 352° |
| 2026-03-27 12:31 | 39.25114 | -5.20582 | 31472 ft | 423 kts | 352° |
| 2026-03-27 12:31 | 39.28022 | -5.21213 | 31593 ft | 424 kts | 352° |
| 2026-03-27 12:31 | 39.30933 | -5.21846 | 31716 ft | 425 kts | 352° |
| 2026-03-27 12:32 | 39.33813 | -5.22473 | 31843 ft | 426 kts | 352° |
| 2026-03-27 12:32 | 39.36742 | -5.23110 | 31960 ft | 427 kts | 352° |
| 2026-03-27 12:32 | 39.39671 | -5.23749 | 32104 ft | 428 kts | 352° |
| 2026-03-27 12:32 | 39.42614 | -5.24391 | 32237 ft | 429 kts | 352° |
| 2026-03-27 12:33 | 39.45559 | -5.25034 | 32389 ft | 430 kts | 352° |
| 2026-03-27 12:33 | 39.48510 | -5.25678 | 32527 ft | 431 kts | 352° |
| 2026-03-27 12:33 | 39.51469 | -5.26325 | 32697 ft | 432 kts | 352° |
| 2026-03-27 12:33 | 39.54434 | -5.26974 | 32870 ft | 433 kts | 352° |
| 2026-03-27 12:34 | 39.57408 | -5.27625 | 33043 ft | 434 kts | 352° |
| 2026-03-27 12:34 | 39.60380 | -5.28277 | 33303 ft | 433 kts | 352° |
| 2026-03-27 12:34 | 39.63352 | -5.28929 | 33567 ft | 433 kts | 352° |
| 2026-03-27 12:34 | 39.66322 | -5.29581 | 33860 ft | 432 kts | 352° |
| 2026-03-27 12:35 | 39.69278 | -5.30231 | 34172 ft | 431 kts | 352° |
| 2026-03-27 12:35 | 39.72236 | -5.30882 | 34433 ft | 430 kts | 352° |
| 2026-03-27 12:35 | 39.75187 | -5.31531 | 34707 ft | 430 kts | 352° |
| 2026-03-27 12:35 | 39.78138 | -5.32076 | 34973 ft | 428 kts | 354° |
| 2026-03-27 12:36 | 39.81091 | -5.32586 | 35222 ft | 428 kts | 353° |
| 2026-03-27 12:36 | 39.84035 | -5.33106 | 35466 ft | 427 kts | 353° |
| 2026-03-27 12:36 | 39.86977 | -5.33628 | 35700 ft | 426 kts | 353° |
| 2026-03-27 12:36 | 39.89915 | -5.34152 | 35926 ft | 426 kts | 353° |
| 2026-03-27 12:37 | 39.92847 | -5.34675 | 36152 ft | 425 kts | 353° |
| 2026-03-27 12:37 | 39.95772 | -5.35197 | 36362 ft | 424 kts | 353° |
| 2026-03-27 12:37 | 39.98698 | -5.35720 | 36572 ft | 424 kts | 353° |
| 2026-03-27 12:37 | 40.01577 | -5.36236 | 36771 ft | 423 kts | 353° |
| 2026-03-27 12:38 | 40.04491 | -5.36757 | 36978 ft | 422 kts | 353° |
| 2026-03-27 12:38 | 40.07399 | -5.37279 | 37178 ft | 422 kts | 353° |
| 2026-03-27 12:38 | 40.10303 | -5.37799 | 37377 ft | 421 kts | 353° |
| 2026-03-27 12:38 | 40.13202 | -5.38320 | 37563 ft | 420 kts | 353° |
| 2026-03-27 12:39 | 40.16097 | -5.38840 | 37755 ft | 419 kts | 353° |
| 2026-03-27 12:39 | 40.18985 | -5.39360 | 37941 ft | 419 kts | 353° |
| 2026-03-27 12:39 | 40.21870 | -5.39879 | 38121 ft | 418 kts | 353° |
| 2026-03-27 12:40 | 40.27623 | -5.40915 | 38126 ft | 415 kts | 353° |
| 2026-03-27 12:40 | 40.33355 | -5.41951 | 38135 ft | 416 kts | 353° |
| 2026-03-27 12:41 | 40.39093 | -5.42989 | 38137 ft | 416 kts | 353° |
| 2026-03-27 12:41 | 40.44829 | -5.44028 | 38156 ft | 416 kts | 353° |
| 2026-03-27 12:42 | 40.50566 | -5.45069 | 38150 ft | 416 kts | 353° |
| 2026-03-27 12:42 | 40.56303 | -5.46111 | 38160 ft | 416 kts | 353° |
| 2026-03-27 12:43 | 40.62040 | -5.47156 | 38173 ft | 416 kts | 353° |
| 2026-03-27 12:43 | 40.67779 | -5.48203 | 38181 ft | 416 kts | 353° |
| 2026-03-27 12:44 | 40.73476 | -5.49245 | 38196 ft | 416 kts | 353° |
| 2026-03-27 12:44 | 40.79214 | -5.50295 | 38202 ft | 416 kts | 353° |
| 2026-03-27 12:45 | 40.84945 | -5.51346 | 38213 ft | 416 kts | 353° |
| 2026-03-27 12:45 | 40.90680 | -5.52399 | 38209 ft | 416 kts | 353° |
| 2026-03-27 12:46 | 40.96412 | -5.53454 | 38209 ft | 416 kts | 353° |
| 2026-03-27 12:46 | 41.02142 | -5.54510 | 38214 ft | 416 kts | 353° |
| 2026-03-27 12:47 | 41.07867 | -5.55567 | 38208 ft | 415 kts | 353° |
| 2026-03-27 12:47 | 41.13589 | -5.56626 | 38212 ft | 415 kts | 353° |
| 2026-03-27 12:48 | 41.19305 | -5.57685 | 38207 ft | 415 kts | 353° |
| 2026-03-27 12:48 | 41.24983 | -5.58739 | 38209 ft | 415 kts | 353° |
| 2026-03-27 12:49 | 41.30692 | -5.59801 | 38212 ft | 414 kts | 352° |
| 2026-03-27 12:49 | 41.36405 | -5.60865 | 38205 ft | 414 kts | 352° |
| 2026-03-27 12:50 | 41.42111 | -5.61929 | 38206 ft | 414 kts | 352° |
| 2026-03-27 12:50 | 41.47818 | -5.62996 | 38209 ft | 414 kts | 352° |
| 2026-03-27 12:51 | 41.53526 | -5.63193 | 38197 ft | 412 kts | 13° |
| 2026-03-27 12:51 | 41.58933 | -5.60529 | 38204 ft | 416 kts | 20° |
| 2026-03-27 12:52 | 41.64302 | -5.57597 | 38211 ft | 417 kts | 21° |
| 2026-03-27 12:52 | 41.69654 | -5.54594 | 38216 ft | 417 kts | 21° |
| 2026-03-27 12:53 | 41.75005 | -5.51570 | 38212 ft | 417 kts | 21° |
| 2026-03-27 12:53 | 41.80346 | -5.48543 | 38212 ft | 417 kts | 21° |
| 2026-03-27 12:54 | 41.85693 | -5.45509 | 38215 ft | 417 kts | 21° |
| 2026-03-27 12:54 | 41.93712 | -5.40946 | 38217 ft | 417 kts | 21° |
| 2026-03-27 12:55 | 41.99057 | -5.37899 | 38218 ft | 417 kts | 21° |
| 2026-03-27 12:55 | 42.04407 | -5.34842 | 38219 ft | 418 kts | 21° |
| 2026-03-27 12:56 | 42.09754 | -5.31782 | 38216 ft | 418 kts | 20° |
| 2026-03-27 12:56 | 42.15069 | -5.28734 | 38222 ft | 418 kts | 20° |
| 2026-03-27 12:57 | 42.20424 | -5.25659 | 38217 ft | 418 kts | 20° |
| 2026-03-27 12:57 | 42.25782 | -5.22575 | 38217 ft | 419 kts | 20° |
| 2026-03-27 12:58 | 42.31148 | -5.19481 | 38211 ft | 419 kts | 20° |
| 2026-03-27 12:58 | 42.36512 | -5.16383 | 38211 ft | 420 kts | 20° |
| 2026-03-27 12:59 | 42.41884 | -5.13274 | 38207 ft | 420 kts | 20° |
| 2026-03-27 12:59 | 42.47260 | -5.10157 | 38208 ft | 420 kts | 20° |
| 2026-03-27 13:00 | 42.52638 | -5.07033 | 38200 ft | 421 kts | 20° |
| 2026-03-27 13:00 | 42.58028 | -5.03897 | 38200 ft | 422 kts | 20° |
| 2026-03-27 13:01 | 42.63424 | -5.00752 | 38202 ft | 422 kts | 20° |
| 2026-03-27 13:01 | 42.68823 | -4.97596 | 38206 ft | 423 kts | 20° |
| 2026-03-27 13:02 | 42.74195 | -4.94451 | 38199 ft | 423 kts | 20° |
| 2026-03-27 13:02 | 42.79597 | -4.91282 | 38210 ft | 423 kts | 20° |
| 2026-03-27 13:03 | 42.85001 | -4.88106 | 38220 ft | 423 kts | 20° |
| 2026-03-27 13:03 | 42.90403 | -4.84926 | 38228 ft | 423 kts | 20° |
| 2026-03-27 13:04 | 42.95806 | -4.81738 | 38234 ft | 423 kts | 20° |
| 2026-03-27 13:04 | 43.01205 | -4.78548 | 38239 ft | 423 kts | 20° |
| 2026-03-27 13:05 | 43.06599 | -4.75353 | 38264 ft | 422 kts | 20° |
| 2026-03-27 13:05 | 43.11991 | -4.72154 | 38281 ft | 422 kts | 20° |
| 2026-03-27 13:06 | 43.17337 | -4.68976 | 38290 ft | 422 kts | 20° |
| 2026-03-27 13:06 | 43.22721 | -4.65769 | 38303 ft | 422 kts | 20° |
| 2026-03-27 13:07 | 43.28110 | -4.62553 | 38308 ft | 422 kts | 20° |
| 2026-03-27 13:07 | 43.33500 | -4.59330 | 38297 ft | 422 kts | 20° |
| 2026-03-27 13:08 | 43.38889 | -4.56102 | 38336 ft | 423 kts | 20° |
| 2026-03-27 13:08 | 43.44282 | -4.52865 | 38339 ft | 423 kts | 20° |
| 2026-03-27 13:09 | 43.49676 | -4.49621 | 38343 ft | 423 kts | 20° |
| 2026-03-27 13:09 | 43.55067 | -4.46371 | 38349 ft | 423 kts | 20° |
| 2026-03-27 13:10 | 43.60464 | -4.43112 | 38345 ft | 423 kts | 20° |
| 2026-03-27 13:10 | 43.65863 | -4.39846 | 38350 ft | 424 kts | 20° |
| 2026-03-27 13:11 | 43.71261 | -4.36573 | 38349 ft | 424 kts | 20° |
| 2026-03-27 13:11 | 43.76625 | -4.33315 | 38349 ft | 424 kts | 20° |
| 2026-03-27 13:12 | 43.82058 | -4.30009 | 38347 ft | 424 kts | 20° |
| 2026-03-27 13:12 | 43.87429 | -4.26734 | 38349 ft | 424 kts | 20° |
| 2026-03-27 13:13 | 43.92827 | -4.23435 | 38352 ft | 424 kts | 20° |
| 2026-03-27 13:13 | 43.98228 | -4.20129 | 38350 ft | 424 kts | 20° |
| 2026-03-27 13:14 | 44.03631 | -4.16815 | 38346 ft | 424 kts | 20° |
| 2026-03-27 13:14 | 44.09031 | -4.13495 | 38349 ft | 424 kts | 20° |
| 2026-03-27 13:15 | 44.14435 | -4.10167 | 38348 ft | 425 kts | 20° |
| 2026-03-27 13:15 | 44.19836 | -4.06834 | 38351 ft | 425 kts | 20° |
| 2026-03-27 13:16 | 44.25204 | -4.03514 | 38355 ft | 425 kts | 20° |
| 2026-03-27 13:16 | 44.30609 | -4.00172 | 38351 ft | 424 kts | 19° |
| 2026-03-27 13:17 | 44.33411 | -3.99058 | 38340 ft | 416 kts | 3° |
| 2026-03-27 13:17 | 44.36289 | -3.98810 | 38350 ft | 416 kts | 1° |
| 2026-03-27 13:17 | 44.42078 | -3.98444 | 38349 ft | 416 kts | 359° |
| 2026-03-27 13:18 | 44.47870 | -3.98189 | 38352 ft | 416 kts | 359° |
| 2026-03-27 13:18 | 44.53661 | -3.97966 | 38363 ft | 416 kts | 359° |
| 2026-03-27 13:19 | 44.59453 | -3.97746 | 38353 ft | 417 kts | 359° |
| 2026-03-27 13:19 | 44.65251 | -3.97526 | 38354 ft | 417 kts | 359° |
| 2026-03-27 13:20 | 44.66419 | -3.97481 | 38353 ft | 417 kts | 359° |
| 2026-03-27 13:20 | 44.72219 | -3.97261 | 38359 ft | 417 kts | 359° |
| 2026-03-27 13:21 | 44.78019 | -3.97039 | 38355 ft | 417 kts | 359° |
| 2026-03-27 13:21 | 44.83822 | -3.96817 | 38354 ft | 417 kts | 359° |
| 2026-03-27 13:22 | 44.89626 | -3.96594 | 38365 ft | 417 kts | 359° |
| 2026-03-27 13:22 | 44.95433 | -3.96372 | 38354 ft | 417 kts | 359° |
| 2026-03-27 13:23 | 45.01237 | -3.96148 | 38356 ft | 417 kts | 359° |
| 2026-03-27 13:23 | 45.07043 | -3.95924 | 38358 ft | 417 kts | 359° |
| 2026-03-27 13:24 | 45.12812 | -3.95701 | 38365 ft | 418 kts | 359° |
| 2026-03-27 13:24 | 45.18621 | -3.95477 | 38354 ft | 418 kts | 359° |
| 2026-03-27 13:25 | 45.24433 | -3.95251 | 38350 ft | 418 kts | 359° |
| 2026-03-27 13:25 | 45.30255 | -3.95025 | 38351 ft | 419 kts | 359° |
| 2026-03-27 13:26 | 45.36081 | -3.94798 | 38351 ft | 419 kts | 359° |
| 2026-03-27 13:26 | 45.41914 | -3.94570 | 38356 ft | 419 kts | 359° |
| 2026-03-27 13:27 | 45.47748 | -3.94342 | 38357 ft | 420 kts | 359° |
| 2026-03-27 13:27 | 45.53548 | -3.94115 | 38357 ft | 420 kts | 359° |
| 2026-03-27 13:28 | 45.59392 | -3.93885 | 38359 ft | 420 kts | 359° |
| 2026-03-27 13:28 | 45.65233 | -3.93655 | 38357 ft | 420 kts | 359° |
| 2026-03-27 13:29 | 45.71080 | -3.93425 | 38356 ft | 420 kts | 359° |
| 2026-03-27 13:29 | 45.76925 | -3.93194 | 38356 ft | 420 kts | 359° |
| 2026-03-27 13:30 | 45.82770 | -3.92962 | 38356 ft | 420 kts | 359° |
| 2026-03-27 13:30 | 45.88617 | -3.92730 | 38357 ft | 420 kts | 359° |
| 2026-03-27 13:31 | 45.94468 | -3.92497 | 38359 ft | 420 kts | 359° |
| 2026-03-27 13:31 | 46.00318 | -3.92264 | 38352 ft | 421 kts | 359° |
| 2026-03-27 13:32 | 46.06129 | -3.92032 | 38351 ft | 421 kts | 359° |
| 2026-03-27 13:32 | 46.11978 | -3.91798 | 38351 ft | 421 kts | 359° |
| 2026-03-27 13:33 | 46.17833 | -3.91563 | 38351 ft | 421 kts | 359° |
| 2026-03-27 13:33 | 46.23687 | -3.91328 | 38353 ft | 421 kts | 359° |
| 2026-03-27 13:34 | 46.29537 | -3.91092 | 38351 ft | 421 kts | 359° |
| 2026-03-27 13:34 | 46.35392 | -3.90855 | 38346 ft | 421 kts | 359° |
| 2026-03-27 13:35 | 46.41250 | -3.90619 | 38348 ft | 421 kts | 359° |
| 2026-03-27 13:35 | 46.47109 | -3.90381 | 38345 ft | 421 kts | 359° |
| 2026-03-27 13:36 | 46.52970 | -3.90143 | 38342 ft | 421 kts | 359° |
| 2026-03-27 13:36 | 46.58833 | -3.89904 | 38337 ft | 422 kts | 359° |
| 2026-03-27 13:37 | 46.64698 | -3.89665 | 38339 ft | 422 kts | 359° |
| 2026-03-27 13:37 | 46.70526 | -3.89426 | 38340 ft | 422 kts | 359° |
| 2026-03-27 13:38 | 46.76395 | -3.89186 | 38336 ft | 422 kts | 359° |
| 2026-03-27 13:38 | 46.82265 | -3.88945 | 38341 ft | 422 kts | 359° |
| 2026-03-27 13:39 | 46.88134 | -3.88704 | 38338 ft | 422 kts | 359° |
| 2026-03-27 13:39 | 46.94004 | -3.88461 | 38332 ft | 422 kts | 359° |
| 2026-03-27 13:40 | 46.99876 | -3.88218 | 38335 ft | 422 kts | 359° |
| 2026-03-27 13:40 | 47.05752 | -3.87975 | 38333 ft | 422 kts | 359° |
| 2026-03-27 13:41 | 47.11625 | -3.87731 | 38328 ft | 422 kts | 359° |
| 2026-03-27 13:41 | 47.17505 | -3.87486 | 38331 ft | 423 kts | 359° |
| 2026-03-27 13:42 | 47.23381 | -3.87241 | 38330 ft | 423 kts | 359° |
| 2026-03-27 13:42 | 47.29260 | -3.86996 | 38317 ft | 423 kts | 359° |
| 2026-03-27 13:43 | 47.37044 | -3.86669 | 38325 ft | 423 kts | 359° |
| 2026-03-27 13:44 | 47.42971 | -3.86420 | 38326 ft | 423 kts | 359° |
| 2026-03-27 13:44 | 47.48861 | -3.86172 | 38317 ft | 423 kts | 359° |
| 2026-03-27 13:45 | 47.54710 | -3.85925 | 38316 ft | 424 kts | 359° |
| 2026-03-27 13:45 | 47.60604 | -3.85676 | 38315 ft | 424 kts | 359° |
| 2026-03-27 13:46 | 47.66494 | -3.85426 | 38315 ft | 424 kts | 359° |
| 2026-03-27 13:46 | 47.72390 | -3.85176 | 38313 ft | 424 kts | 359° |
| 2026-03-27 13:47 | 47.78291 | -3.84924 | 38310 ft | 424 kts | 359° |
| 2026-03-27 13:47 | 47.84198 | -3.84673 | 38302 ft | 424 kts | 359° |
| 2026-03-27 13:48 | 47.90103 | -3.84420 | 38299 ft | 425 kts | 359° |
| 2026-03-27 13:48 | 47.96012 | -3.84166 | 38299 ft | 425 kts | 359° |
| 2026-03-27 13:49 | 48.07524 | -3.83671 | 38300 ft | 426 kts | 359° |
| 2026-03-27 13:50 | 48.13604 | -3.83408 | 38293 ft | 426 kts | 359° |
| 2026-03-27 13:50 | 48.19933 | -3.83134 | 38284 ft | 426 kts | 359° |
| 2026-03-27 13:51 | 48.25859 | -3.82877 | 38298 ft | 426 kts | 359° |
| 2026-03-27 13:51 | 48.31792 | -3.82619 | 38285 ft | 426 kts | 359° |
| 2026-03-27 13:52 | 48.37725 | -3.82361 | 38283 ft | 427 kts | 359° |
| 2026-03-27 13:52 | 48.43666 | -3.82101 | 38265 ft | 427 kts | 359° |
| 2026-03-27 13:53 | 48.49615 | -3.81841 | 38276 ft | 428 kts | 359° |
| 2026-03-27 13:53 | 48.55571 | -3.81579 | 38271 ft | 428 kts | 359° |
| 2026-03-27 13:54 | 48.61495 | -3.81319 | 38260 ft | 429 kts | 359° |
| 2026-03-27 13:54 | 48.67464 | -3.81056 | 38269 ft | 430 kts | 359° |
| 2026-03-27 13:55 | 48.73440 | -3.80791 | 38261 ft | 430 kts | 358° |